トビリシ の空港の天気 - METARとTAF

トビリシ国際空港 ( UGTB / TBS ) - ジョージア トビリシ
飛行場実況気象(Metar)
観測時間06/21 08:00 GET (06/21 04:00 UTC)
風向・風速西北西 5m/s
視程10km以上
天気現象
なし
気温21℃
湿度69%
気圧1019hPa
METARUGTB 210400Z 30010KT CAVOK 21/15 Q1019 NOSIG
過去の天気等 Google飛行場航空写真 Wunderground天気予報

過去48時間のMETAR

飛行場予報(TAF)
発表時間: 6/21 03:00 GET (6/20 23:00 UTC)
予報対象時間: 21日4時 GET ~ 22日4時 GET
風向・風速不定 1m/s
視程10km以上
全天の4割程度の雲 雲底高度 1830m
21日4時 GET ~ 21日8時 GET に一時的に
風向・風速北西 5m/s
21日10時 GET ~ 21日12時 GET に徐々に
風向・風速南南東 5m/s
21日22時 GET ~ 22日4時 GET に一時的に
風向・風速北東 4m/s
TAF UGTB 202300Z 2100/2124 VRB02KT 9999 SCT060 TX30/2112Z TN18/2102Z
TEMPO 2100/2104 32010KT
BECMG 2106/2108 15009KT
TEMPO 2118/2124 05008KT